Time;durP1;ratioP1;P1;durP2;ratioP2;P2;SDS_P1;SDS_P2;PMS_P1;PMS_P2;Temp;Humidity;BMP_temperature;BMP_pressure;BME280_temperature;BME280_humidity;BME280_pressure;Samples;Min_cycle;Max_cycle;Signal;HPM_P1;HPM_P2
2021/09/30 00:00:43;;;;;;;6.70;2.58;;;;;;;9.68;nan;102054.53;4912922;29;20059;-82
2021/09/30 00:03:12;;;;;;;4.75;2.90;;;;;;;9.57;nan;102060.53;4919971;29;20051;-81
2021/09/30 00:05:38;;;;;;;4.75;2.17;;;;;;;9.45;nan;102066.72;4902274;29;20028;-81
2021/09/30 00:08:05;;;;;;;2.25;2.05;;;;;;;9.31;nan;102065.91;4900325;29;20055;-80
2021/09/30 00:10:31;;;;;;;4.22;2.53;;;;;;;9.37;nan;102068.59;4898792;29;20415;-80
2021/09/30 00:13:01;;;;;;;3.45;2.22;;;;;;;9.33;nan;102071.88;4887431;29;20037;-81
2021/09/30 00:15:34;;;;;;;2.50;2.13;;;;;;;9.28;nan;102072.50;4897866;29;20044;-80
2021/09/30 00:34:20;;;;;;;3.80;2.45;;;;;;;9.11;nan;102092.66;4915830;29;20108;-81
2021/09/30 01:21:50;;;;;;;5.95;2.20;;;;;;;8.66;nan;102119.16;4910047;29;20047;-79
2021/09/30 02:22:27;;;;;;;4.30;2.13;;;;;;;8.35;nan;102150.88;4922940;29;20047;-83
2021/09/30 02:25:15;;;;;;;2.28;1.67;;;;;;;8.33;nan;102143.03;4917922;29;20051;-80
2021/09/30 03:00:36;;;;;;;2.55;1.80;;;;;;;8.05;nan;102169.78;4910908;29;20517;-81
2021/09/30 03:03:04;;;;;;;3.20;1.80;;;;;;;8.01;nan;102165.88;4900808;29;20056;-80
2021/09/30 03:05:30;;;;;;;1.98;1.80;;;;;;;8.05;nan;102168.97;4908987;29;20170;-80
2021/09/30 03:07:56;;;;;;;4.60;2.20;;;;;;;8.00;nan;102172.22;4887192;29;20495;-80
2021/09/30 03:10:23;;;;;;;6.95;1.88;;;;;;;7.87;nan;102167.63;4910721;29;20036;-79
2021/09/30 03:12:50;;;;;;;4.93;1.88;;;;;;;7.83;nan;102165.56;4905983;29;20044;-80
2021/09/30 03:17:58;;;;;;;;;;;;;;;7.78;nan;102167.97;4915384;29;20039;-80
2021/09/30 03:23:13;;;;;;;2.70;1.60;;;;;;;7.79;nan;102186.47;4911411;29;20020;-80
2021/09/30 03:25:42;;;;;;;3.80;1.98;;;;;;;7.78;nan;102186.66;4897606;29;20042;-80
2021/09/30 03:28:08;;;;;;;2.20;2.00;;;;;;;7.73;nan;102179.25;4905994;29;20044;-80
2021/09/30 03:30:34;;;;;;;2.03;1.80;;;;;;;7.73;nan;102186.44;4913065;29;20095;-81
2021/09/30 03:33:03;;;;;;;3.25;1.95;;;;;;;7.80;nan;102187.28;4888739;29;20028;-81
2021/09/30 03:35:29;;;;;;;2.53;2.33;;;;;;;7.86;nan;102192.66;4915712;29;20028;-81
2021/09/30 03:37:54;;;;;;;4.00;2.05;;;;;;;7.81;nan;102189.75;4899646;29;20067;-81
2021/09/30 03:40:20;;;;;;;4.93;1.80;;;;;;;7.78;nan;102184.81;4886944;29;20024;-81
2021/09/30 03:42:45;;;;;;;6.15;2.00;;;;;;;7.92;nan;102195.59;4901614;29;20048;-81
2021/09/30 03:45:11;;;;;;;3.33;2.20;;;;;;;7.85;nan;102190.19;4913730;29;20475;-81
2021/09/30 03:47:37;;;;;;;1.98;1.83;;;;;;;7.88;nan;102192.47;4917453;29;20043;-80
2021/09/30 03:50:06;;;;;;;3.70;2.10;;;;;;;7.77;nan;102198.34;4904427;29;20052;-81
2021/09/30 03:57:51;;;;;;;3.20;1.60;;;;;;;7.68;nan;102196.84;4917927;29;20027;-81
2021/09/30 04:00:17;;;;;;;1.80;1.70;;;;;;;7.58;nan;102190.00;4911553;29;20487;-82
2021/09/30 04:02:43;;;;;;;2.50;1.80;;;;;;;7.56;nan;102193.88;4892293;29;20039;-80
2021/09/30 04:05:10;;;;;;;4.93;2.35;;;;;;;7.65;nan;102200.72;4911849;29;20398;-80
2021/09/30 04:07:36;;;;;;;2.08;1.80;;;;;;;7.64;nan;102192.91;4919490;29;20031;-80
2021/09/30 04:10:01;;;;;;;4.55;2.60;;;;;;;7.61;nan;102194.13;4898205;29;20022;-80
2021/09/30 04:12:27;;;;;;;3.17;2.08;;;;;;;7.64;nan;102199.06;4916713;29;20043;-81
2021/09/30 04:14:52;;;;;;;5.88;2.20;;;;;;;7.60;nan;102202.31;4897142;29;20090;-80
2021/09/30 04:17:18;;;;;;;2.03;1.70;;;;;;;7.61;nan;102203.97;4903327;29;20168;-80
2021/09/30 04:19:43;;;;;;;2.95;1.70;;;;;;;7.72;nan;102206.94;4896838;29;20391;-80
2021/09/30 04:22:09;;;;;;;4.43;1.50;;;;;;;7.84;nan;102204.56;4898508;29;20032;-80
2021/09/30 04:24:34;;;;;;;4.55;2.05;;;;;;;7.88;nan;102206.63;4894519;29;20039;-79
2021/09/30 04:27:00;;;;;;;5.53;2.20;;;;;;;7.95;nan;102206.69;4893711;29;20472;-80
2021/09/30 04:29:26;;;;;;;3.05;1.83;;;;;;;8.06;nan;102216.00;4913555;29;20079;-80
2021/09/30 04:31:52;;;;;;;4.47;1.90;;;;;;;8.10;nan;102219.94;4923652;29;20036;-80
2021/09/30 04:34:18;;;;;;;2.38;1.90;;;;;;;8.10;nan;102226.09;4914852;29;20514;-81
2021/09/30 04:36:46;;;;;;;1.90;1.75;;;;;;;8.08;nan;102222.00;4897189;29;20039;-81
2021/09/30 04:39:12;;;;;;;2.80;2.10;;;;;;;8.10;nan;102225.28;4891402;29;20035;-81
2021/09/30 04:41:38;;;;;;;6.40;2.35;;;;;;;8.10;nan;102219.94;4914225;29;20027;-81
2021/09/30 04:44:04;;;;;;;3.05;2.20;;;;;;;8.16;nan;102229.81;4886487;29;20451;-81
2021/09/30 04:46:29;;;;;;;2.05;1.80;;;;;;;8.21;nan;102235.41;4905817;29;20692;-80
2021/09/30 04:48:55;;;;;;;2.28;1.85;;;;;;;8.20;nan;102231.06;4914402;29;20127;-80
2021/09/30 04:51:21;;;;;;;3.40;1.92;;;;;;;8.18;nan;102230.44;4892712;29;20402;-80
2021/09/30 04:53:46;;;;;;;2.95;2.15;;;;;;;8.24;nan;102236.84;4913077;29;20068;-81
2021/09/30 04:56:12;;;;;;;3.30;2.10;;;;;;;8.23;nan;102238.69;4912459;29;20032;-82
2021/09/30 04:58:39;;;;;;;3.20;2.08;;;;;;;8.18;nan;102239.28;4913316;29;20038;-80
2021/09/30 05:01:04;;;;;;;5.20;2.47;;;;;;;8.10;nan;102241.28;4900618;29;20067;-82
2021/09/30 05:03:31;;;;;;;5.53;2.08;;;;;;;8.21;nan;102248.75;4914095;29;20599;-81
2021/09/30 05:06:03;;;;;;;1.67;1.58;;;;;;;8.19;nan;102250.78;4913557;29;20571;-83
2021/09/30 05:08:33;;;;;;;3.35;2.05;;;;;;;8.22;nan;102255.72;4891049;29;21914;-82
2021/09/30 05:10:59;;;;;;;6.45;2.20;;;;;;;8.33;nan;102257.03;4897717;29;20076;-81
2021/09/30 05:13:35;;;;;;;5.38;2.00;;;;;;;8.41;nan;102262.25;4899260;29;20035;-80
2021/09/30 05:16:01;;;;;;;3.25;1.88;;;;;;;8.36;nan;102262.03;4894979;29;20039;-81
2021/09/30 05:18:26;;;;;;;2.83;2.25;;;;;;;8.36;nan;102262.84;4898238;29;20021;-81
2021/09/30 05:20:52;;;;;;;5.60;2.63;;;;;;;8.40;nan;102269.44;4901076;29;20095;-81
2021/09/30 05:23:17;;;;;;;5.50;2.35;;;;;;;8.55;nan;102277.34;4884503;29;20056;-81
2021/09/30 05:25:43;;;;;;;3.88;1.92;;;;;;;8.47;nan;102272.16;4889750;29;20032;-81
2021/09/30 05:28:08;;;;;;;2.58;1.83;;;;;;;8.55;nan;102272.00;4908790;29;20071;-81
2021/09/30 05:30:34;;;;;;;3.35;1.92;;;;;;;8.61;nan;102273.88;4903957;29;20217;-81
2021/09/30 05:32:59;;;;;;;5.47;2.00;;;;;;;8.66;nan;102275.97;4906372;29;20032;-81
2021/09/30 05:35:25;;;;;;;4.13;2.20;;;;;;;8.68;nan;102274.75;4909838;29;20042;-81
2021/09/30 05:37:51;;;;;;;3.28;1.90;;;;;;;8.77;nan;102278.06;4906109;29;20029;-81
2021/09/30 05:40:16;;;;;;;4.05;2.22;;;;;;;8.75;nan;102277.44;4894195;29;20035;-81
2021/09/30 05:42:43;;;;;;;5.50;2.28;;;;;;;8.87;nan;102283.03;4907220;29;22207;-81
2021/09/30 05:45:12;;;;;;;5.28;2.13;;;;;;;8.87;nan;102280.38;4910656;29;20063;-81
2021/09/30 05:47:39;;;;;;;5.28;2.33;;;;;;;8.89;nan;102289.00;4897652;29;20224;-81
2021/09/30 05:50:37;;;;;;;3.15;1.70;;;;;;;8.96;nan;102289.84;4918474;29;20071;-80
2021/09/30 05:53:21;;;;;;;2.67;2.08;;;;;;;9.07;nan;102289.28;4891268;29;20071;-80
2021/09/30 05:56:05;;;;;;;3.45;1.98;;;;;;;9.34;nan;102300.91;4903329;29;20181;-80
2021/09/30 05:58:31;;;;;;;1.65;1.55;;;;;;;9.61;nan;102299.91;4887888;29;20030;-81
2021/09/30 06:01:12;;;;;;;4.85;1.70;;;;;;;9.75;nan;102300.78;4893129;29;20032;-81
2021/09/30 06:12:21;;;;;;;3.72;1.40;;;;;;;10.36;nan;102292.53;4908973;29;20123;-80
2021/09/30 06:14:28;;;;;;;3.50;1.30;;;;;;;10.40;nan;102296.44;4901515;29;20076;-80
2021/09/30 06:16:55;;;;;;;2.58;1.25;;;;;;;10.49;nan;102303.22;4907075;29;20024;-80
2021/09/30 06:19:21;;;;;;;4.50;1.40;;;;;;;10.71;nan;102305.63;4896463;29;20435;-80
2021/09/30 06:21:52;;;;;;;5.35;1.38;;;;;;;10.60;nan;102299.09;4897855;29;20028;-80
2021/09/30 06:24:19;;;;;;;5.90;1.73;;;;;;;10.68;nan;102311.44;4906869;29;20075;-80
2021/09/30 06:26:45;;;;;;;4.10;1.30;;;;;;;10.65;nan;102307.31;4916912;29;20395;-80
2021/09/30 06:29:11;;;;;;;2.08;1.50;;;;;;;10.63;nan;102313.94;4908764;29;20024;-80
2021/09/30 06:31:37;;;;;;;8.35;1.70;;;;;;;10.56;nan;102314.75;4899731;29;20032;-81
2021/09/30 06:34:02;;;;;;;2.03;1.30;;;;;;;10.38;nan;102317.25;4893949;29;20061;-81
2021/09/30 06:36:28;;;;;;;4.10;1.30;;;;;;;10.39;nan;102318.91;4910502;29;20047;-81
2021/09/30 06:38:54;;;;;;;4.00;1.48;;;;;;;10.39;nan;102316.22;4890766;29;20067;-81
2021/09/30 06:41:20;;;;;;;2.60;1.30;;;;;;;10.36;nan;102315.81;4902779;29;20410;-81
2021/09/30 06:43:45;;;;;;;3.42;1.60;;;;;;;10.35;nan;102315.00;4901153;29;20037;-81
2021/09/30 06:46:11;;;;;;;7.15;1.92;;;;;;;10.39;nan;102326.94;4907527;29;20024;-81
2021/09/30 06:48:36;;;;;;;2.22;1.27;;;;;;;10.28;nan;102320.38;4904238;29;20039;-81
2021/09/30 06:51:02;;;;;;;3.85;1.40;;;;;;;10.33;nan;102322.41;4914295;29;20032;-80
2021/09/30 06:53:28;;;;;;;2.65;1.40;;;;;;;10.21;nan;102324.06;4910310;29;20093;-80
2021/09/30 06:55:58;;;;;;;2.60;1.70;;;;;;;10.33;nan;102330.47;4895223;29;20499;-80
2021/09/30 06:58:25;;;;;;;5.22;1.20;;;;;;;10.37;nan;102320.13;4909011;29;20068;-80
2021/09/30 07:00:56;;;;;;;2.45;1.42;;;;;;;10.29;nan;102318.50;4907403;29;20046;-81
2021/09/30 07:03:23;;;;;;;3.53;1.40;;;;;;;10.45;nan;102322.63;4913151;29;20032;-80
2021/09/30 07:05:49;;;;;;;4.10;1.23;;;;;;;10.37;nan;102330.84;4905682;29;20055;-80
2021/09/30 07:08:14;;;;;;;2.55;1.17;;;;;;;10.29;nan;102332.72;4907023;29;20115;-81
2021/09/30 07:10:40;;;;;;;2.05;1.27;;;;;;;10.21;nan;102332.09;4913010;29;20031;-80
2021/09/30 07:13:05;;;;;;;1.88;1.30;;;;;;;10.19;nan;102331.47;4892112;29;20096;-81
2021/09/30 07:15:31;;;;;;;2.72;1.13;;;;;;;10.30;nan;102330.88;4893576;29;20036;-80
2021/09/30 07:17:57;;;;;;;7.03;1.40;;;;;;;10.33;nan;102338.50;4908717;29;20403;-80
2021/09/30 07:20:23;;;;;;;4.15;1.23;;;;;;;10.29;nan;102338.09;4909810;29;20273;-81
2021/09/30 07:22:49;;;;;;;4.13;1.60;;;;;;;10.41;nan;102346.34;4913560;29;20024;-81
2021/09/30 07:25:14;;;;;;;3.20;1.63;;;;;;;10.48;nan;102349.81;4912207;29;20031;-81
2021/09/30 07:27:40;;;;;;;2.13;1.20;;;;;;;10.41;nan;102354.38;4907704;29;20028;-81
2021/09/30 07:30:09;;;;;;;3.80;1.45;;;;;;;10.52;nan;102352.91;4908435;29;20035;-81
2021/09/30 07:32:34;;;;;;;5.30;1.30;;;;;;;10.55;nan;102366.69;4912939;29;20054;-81
2021/09/30 07:35:00;;;;;;;4.35;1.30;;;;;;;10.58;nan;102360.91;4918837;29;20024;-81
2021/09/30 07:37:25;;;;;;;3.42;1.17;;;;;;;10.33;nan;102367.97;4910230;29;20039;-80
2021/09/30 07:39:51;;;;;;;4.68;1.77;;;;;;;10.47;nan;102364.25;4902609;29;20558;-80
2021/09/30 07:42:16;;;;;;;5.93;3.15;;;;;;;10.48;nan;102365.91;4910353;29;20032;-81
2021/09/30 07:44:42;;;;;;;24.70;10.55;;;;;;;10.50;nan;102363.00;4911549;29;20070;-80
2021/09/30 07:47:08;;;;;;;29.35;12.15;;;;;;;10.56;nan;102367.53;4888275;29;20051;-81
2021/09/30 07:49:34;;;;;;;9.43;4.72;;;;;;;10.47;nan;102363.44;4906394;29;20313;-80
2021/09/30 07:52:00;;;;;;;3.60;1.77;;;;;;;10.53;nan;102371.44;4895961;29;20028;-80
2021/09/30 07:54:25;;;;;;;3.83;1.45;;;;;;;10.49;nan;102361.34;4908300;29;20234;-80
2021/09/30 07:56:51;;;;;;;2.33;1.35;;;;;;;10.55;nan;102372.06;4908040;29;20024;-80
2021/09/30 07:59:16;;;;;;;3.30;1.60;;;;;;;10.58;nan;102371.63;4914169;29;20451;-81
2021/09/30 08:01:42;;;;;;;2.63;1.20;;;;;;;10.74;nan;102372.22;4906850;29;20166;-80
2021/09/30 08:04:07;;;;;;;7.70;1.30;;;;;;;10.87;nan;102367.66;4910458;29;20036;-80
2021/09/30 08:06:33;;;;;;;6.43;1.20;;;;;;;11.05;nan;102377.72;4907098;29;20036;-80
2021/09/30 08:08:59;;;;;;;4.47;1.30;;;;;;;11.04;nan;102373.41;4914802;29;20701;-80
2021/09/30 08:11:28;;;;;;;2.83;1.27;;;;;;;11.03;nan;102369.06;4908357;29;20024;-80
2021/09/30 08:13:55;;;;;;;1.90;0.95;;;;;;;11.04;nan;102377.94;4901504;29;20064;-79
2021/09/30 08:16:21;;;;;;;2.80;1.30;;;;;;;11.09;nan;102378.94;4905710;29;20032;-80
2021/09/30 08:18:47;;;;;;;4.30;1.58;;;;;;;11.20;nan;102374.78;4902806;29;20574;-80
2021/09/30 08:21:14;;;;;;;7.53;1.50;;;;;;;11.14;nan;102381.84;4902744;29;20076;-80
2021/09/30 08:23:44;;;;;;;2.55;1.30;;;;;;;11.20;nan;102390.91;4900676;29;20142;-80
2021/09/30 08:26:10;;;;;;;10.23;1.95;;;;;;;11.17;nan;102386.78;4899552;29;20087;-80
2021/09/30 08:28:36;;;;;;;4.80;1.88;;;;;;;11.42;nan;102389.56;4884223;29;20508;-80
2021/09/30 08:31:04;;;;;;;3.65;1.30;;;;;;;11.58;nan;102390.94;4906813;29;20147;-80
2021/09/30 08:33:29;;;;;;;5.43;2.22;;;;;;;11.56;nan;102392.19;4909559;29;20032;-80
2021/09/30 08:35:55;;;;;;;2.47;1.30;;;;;;;11.77;nan;102402.59;4900942;29;20032;-80
2021/09/30 08:38:21;;;;;;;4.40;1.58;;;;;;;11.82;nan;102410.84;4904047;29;20028;-80
2021/09/30 08:40:47;;;;;;;5.03;2.40;;;;;;;11.93;nan;102403.97;4901763;29;20295;-81
2021/09/30 08:43:13;;;;;;;4.15;2.60;;;;;;;11.88;nan;102409.19;4906147;29;20031;-80
2021/09/30 08:45:40;;;;;;;3.10;1.77;;;;;;;12.12;nan;102411.06;4907500;29;20028;-81
2021/09/30 08:48:07;;;;;;;5.15;1.65;;;;;;;12.43;nan;102420.16;4895267;29;20531;-81
2021/09/30 08:50:40;;;;;;;5.57;1.40;;;;;;;12.50;nan;102415.53;4902051;29;20032;-80
2021/09/30 08:53:08;;;;;;;2.25;1.30;;;;;;;12.52;nan;102416.13;4908826;29;20024;-80
2021/09/30 08:55:34;;;;;;;4.40;1.02;;;;;;;12.47;nan;102426.72;4906906;29;20039;-81
2021/09/30 08:58:03;;;;;;;2.42;1.08;;;;;;;12.25;nan;102421.72;4906436;29;20277;-81
2021/09/30 09:00:30;;;;;;;7.03;1.77;;;;;;;12.45;nan;102408.13;4906954;29;20032;-80
2021/09/30 09:02:56;;;;;;;8.95;1.42;;;;;;;12.50;nan;102410.97;4885275;29;20035;-81
2021/09/30 09:05:22;;;;;;;6.47;1.17;;;;;;;12.49;nan;102416.56;4888881;29;20147;-80
2021/09/30 09:08:08;;;;;;;4.78;1.35;;;;;;;12.32;nan;102418.97;4879928;29;20063;-81
2021/09/30 09:10:37;;;;;;;3.28;1.48;;;;;;;12.28;nan;102418.59;4902154;29;20095;-81
2021/09/30 09:13:12;;;;;;;4.57;1.30;;;;;;;12.25;nan;102420.91;4905118;29;20092;-81
2021/09/30 09:15:43;;;;;;;6.97;1.45;;;;;;;12.32;nan;102419.81;4902766;29;20060;-81
2021/09/30 09:18:22;;;;;;;4.95;1.17;;;;;;;12.15;nan;102421.38;4904674;29;20028;-81
2021/09/30 09:21:12;;;;;;;3.85;1.17;;;;;;;11.95;nan;102426.06;4907332;29;20252;-80
2021/09/30 09:23:51;;;;;;;3.88;1.00;;;;;;;11.98;nan;102437.19;4909134;29;20144;-81
2021/09/30 09:26:19;;;;;;;7.63;1.10;;;;;;;11.92;nan;102430.00;4907044;29;20028;-80
2021/09/30 09:29:12;;;;;;;4.22;1.25;;;;;;;12.00;nan;102426.22;4887374;29;20028;-81
2021/09/30 09:31:41;;;;;;;5.60;1.00;;;;;;;12.04;nan;102430.16;4900027;29;20028;-81
2021/09/30 09:34:32;;;;;;;5.38;1.13;;;;;;;12.04;nan;102424.78;4910414;29;20039;-81
2021/09/30 09:37:29;;;;;;;5.70;1.30;;;;;;;12.39;nan;102430.53;4915090;29;20430;-81
2021/09/30 09:39:55;;;;;;;4.68;1.02;;;;;;;12.58;nan;102432.22;4907098;29;20028;-81
2021/09/30 09:42:26;;;;;;;4.05;1.48;;;;;;;12.84;nan;102435.69;4912101;29;20598;-81
2021/09/30 09:45:05;;;;;;;4.80;1.17;;;;;;;13.16;nan;102433.72;4915436;29;20028;-81
2021/09/30 09:47:54;;;;;;;3.75;1.10;;;;;;;13.24;nan;102434.25;4910942;29;20166;-80
2021/09/30 09:50:37;;;;;;;2.40;1.02;;;;;;;13.34;nan;102430.22;4889037;29;20040;-81
2021/09/30 09:53:07;;;;;;;4.97;1.13;;;;;;;13.67;nan;102444.09;4910067;29;20535;-81
2021/09/30 09:55:41;;;;;;;3.08;1.20;;;;;;;13.69;nan;102439.31;4905437;29;20051;-81
2021/09/30 09:58:12;;;;;;;5.90;1.27;;;;;;;13.80;nan;102445.78;4910586;29;20033;-81
2021/09/30 10:00:58;;;;;;;4.82;1.42;;;;;;;14.09;nan;102439.56;4914846;29;20063;-81
2021/09/30 10:03:32;;;;;;;2.70;0.90;;;;;;;14.44;nan;102439.66;4887071;29;20084;-81
2021/09/30 10:06:01;;;;;;;3.00;1.15;;;;;;;14.57;nan;102438.63;4914800;29;20033;-80
2021/09/30 10:08:27;;;;;;;4.18;1.05;;;;;;;14.51;nan;102442.25;4894541;29;20095;-80
2021/09/30 10:10:55;;;;;;;6.55;1.30;;;;;;;14.87;nan;102446.59;4910276;29;20296;-80
2021/09/30 10:13:24;;;;;;;3.55;1.10;;;;;;;15.00;nan;102440.16;4914023;29;20040;-81
2021/09/30 10:15:54;;;;;;;3.58;0.75;;;;;;;15.41;nan;102431.84;4884746;29;20033;-80
2021/09/30 10:18:29;;;;;;;6.57;1.00;;;;;;;15.09;nan;102455.75;4889213;29;20025;-81
2021/09/30 10:20:57;;;;;;;5.13;1.13;;;;;;;15.44;nan;102452.19;4890350;29;20037;-81
2021/09/30 10:23:28;;;;;;;5.40;1.30;;;;;;;15.67;nan;102448.59;4910962;29;20028;-81
2021/09/30 10:25:59;;;;;;;2.83;1.13;;;;;;;15.72;nan;102451.41;4907593;29;20052;-81
2021/09/30 10:28:25;;;;;;;4.18;0.80;;;;;;;15.38;nan;102453.94;4906791;29;20388;-81
2021/09/30 10:30:53;;;;;;;6.93;1.15;;;;;;;15.22;nan;102460.06;4906761;29;20031;-81
2021/09/30 10:33:42;;;;;;;3.65;1.40;;;;;;;15.10;nan;102467.38;4902639;29;20043;-81
2021/09/30 10:36:35;;;;;;;3.55;0.82;;;;;;;15.38;nan;102464.72;4901307;29;20449;-81
2021/09/30 10:39:22;;;;;;;2.00;0.70;;;;;;;15.10;nan;102470.91;4906632;29;20493;-81
2021/09/30 10:41:52;;;;;;;6.75;1.30;;;;;;;15.14;nan;102478.53;4903624;29;20442;-81
2021/09/30 10:44:23;;;;;;;1.75;0.90;;;;;;;15.24;nan;102473.31;4903053;29;20063;-81
2021/09/30 10:46:51;;;;;;;4.28;0.95;;;;;;;15.10;nan;102483.56;4904106;29;20482;-81
2021/09/30 10:49:30;;;;;;;5.53;1.30;;;;;;;14.95;nan;102486.75;4899879;29;20246;-81
2021/09/30 10:52:20;;;;;;;2.42;0.90;;;;;;;14.92;nan;102475.59;4902725;29;20028;-81
2021/09/30 10:55:10;;;;;;;4.13;1.38;;;;;;;14.85;nan;102486.50;4904140;29;20395;-81
2021/09/30 10:57:37;;;;;;;6.10;1.17;;;;;;;14.57;nan;102486.38;4905026;29;20032;-81
2021/09/30 11:00:23;;;;;;;3.28;1.38;;;;;;;14.67;nan;102486.59;4908510;29;20024;-81
2021/09/30 11:03:09;;;;;;;5.13;1.75;;;;;;;14.70;nan;102494.22;4900636;29;20059;-82
2021/09/30 11:05:38;;;;;;;3.03;0.95;;;;;;;14.95;nan;102494.84;4898976;29;20071;-81
2021/09/30 11:08:30;;;;;;;4.82;1.20;;;;;;;15.01;nan;102484.97;4899304;29;20541;-81
2021/09/30 11:11:07;;;;;;;4.63;1.15;;;;;;;14.90;nan;102488.50;4903680;29;20644;-81
2021/09/30 11:13:35;;;;;;;6.65;1.35;;;;;;;14.95;nan;102480.53;4906543;29;20060;-81
2021/09/30 11:16:07;;;;;;;3.88;1.25;;;;;;;14.92;nan;102491.81;4907820;29;20032;-82
2021/09/30 11:18:55;;;;;;;3.97;1.17;;;;;;;14.95;nan;102489.44;4908647;29;20031;-81
2021/09/30 11:21:34;;;;;;;3.08;0.90;;;;;;;15.07;nan;102492.13;4901503;29;20032;-81
2021/09/30 11:24:22;;;;;;;2.22;0.93;;;;;;;14.98;nan;102496.25;4908823;29;20036;-81
2021/09/30 11:26:47;;;;;;;4.25;1.40;;;;;;;14.94;nan;102495.91;4906338;29;20219;-81
2021/09/30 11:29:19;;;;;;;5.93;1.42;;;;;;;15.15;nan;102490.97;4907177;29;20059;-81
2021/09/30 11:31:46;;;;;;;5.25;1.27;;;;;;;15.00;nan;102491.44;4911552;29;20028;-82
2021/09/30 11:34:20;;;;;;;5.53;1.15;;;;;;;15.16;nan;102498.81;4904102;29;21622;-81
2021/09/30 11:36:45;;;;;;;3.85;1.27;;;;;;;15.22;nan;102488.94;4903149;29;20036;-81
2021/09/30 11:39:12;;;;;;;11.02;1.50;;;;;;;14.93;nan;102490.75;4907015;29;20032;-81
2021/09/30 11:41:40;;;;;;;5.00;1.15;;;;;;;15.13;nan;102493.06;4900459;29;20040;-81
2021/09/30 11:44:06;;;;;;;1.70;0.85;;;;;;;15.04;nan;102495.28;4903541;29;20460;-81
2021/09/30 11:46:35;;;;;;;5.60;1.13;;;;;;;15.19;nan;102484.84;4911890;29;20110;-81
2021/09/30 11:49:04;;;;;;;6.57;1.20;;;;;;;14.95;nan;102492.16;4904736;29;20128;-81
2021/09/30 11:51:30;;;;;;;3.22;0.88;;;;;;;14.82;nan;102490.50;4908226;29;20035;-81
2021/09/30 11:53:55;;;;;;;4.95;1.15;;;;;;;14.76;nan;102496.00;4912941;29;20477;-81
2021/09/30 11:56:21;;;;;;;3.10;1.13;;;;;;;14.70;nan;102500.44;4902866;29;20099;-81
2021/09/30 11:59:06;;;;;;;4.35;1.02;;;;;;;14.63;nan;102499.75;4912567;29;20035;-81
2021/09/30 12:01:41;;;;;;;3.70;0.90;;;;;;;14.71;nan;102493.16;4916647;29;20036;-81
2021/09/30 12:04:08;;;;;;;1.33;0.90;;;;;;;14.93;nan;102498.84;4914423;29;21376;-81
2021/09/30 12:06:43;;;;;;;4.05;0.82;;;;;;;15.13;nan;102498.47;4913959;29;20130;-81
2021/09/30 12:09:14;;;;;;;3.65;0.95;;;;;;;15.35;nan;102507.59;4911412;29;20036;-81
2021/09/30 12:11:53;;;;;;;2.78;1.13;;;;;;;15.52;nan;102503.13;4918066;29;20035;-81
2021/09/30 12:14:19;;;;;;;2.05;0.73;;;;;;;16.13;nan;102498.09;4910005;29;20118;-80
2021/09/30 12:16:57;;;;;;;2.35;0.90;;;;;;;16.00;nan;102499.25;4900409;29;20031;-80
2021/09/30 12:19:39;;;;;;;4.28;1.02;;;;;;;15.52;nan;102507.69;4920654;29;20490;-80
2021/09/30 12:22:17;;;;;;;5.88;1.02;;;;;;;15.63;nan;102504.19;4922382;29;20023;-81
2021/09/30 12:24:49;;;;;;;3.83;1.35;;;;;;;15.26;nan;102496.34;4902102;29;20043;-81
2021/09/30 12:27:16;;;;;;;2.83;0.82;;;;;;;15.37;nan;102498.19;4915817;29;20039;-81
2021/09/30 12:29:45;;;;;;;4.18;0.88;;;;;;;15.10;nan;102505.19;4913063;29;20039;-81
2021/09/30 12:32:15;;;;;;;5.03;1.08;;;;;;;15.33;nan;102504.31;4908229;29;20096;-81
2021/09/30 12:35:02;;;;;;;1.17;0.80;;;;;;;15.37;nan;102503.59;4913535;29;20020;-81
2021/09/30 12:37:32;;;;;;;3.55;0.70;;;;;;;15.08;nan;102496.47;4917271;29;20044;-80
2021/09/30 12:40:06;;;;;;;5.63;1.00;;;;;;;15.27;nan;102499.88;4903987;29;20038;-82
2021/09/30 12:42:32;;;;;;;3.30;1.02;;;;;;;15.12;nan;102494.97;4907378;29;20032;-81
2021/09/30 12:44:58;;;;;;;4.50;1.13;;;;;;;15.07;nan;102492.13;4915998;29;20048;-81
2021/09/30 12:47:33;;;;;;;3.00;1.10;;;;;;;15.05;nan;102491.53;4908859;29;20032;-81
2021/09/30 12:50:08;;;;;;;2.63;0.93;;;;;;;15.03;nan;102493.66;4924948;29;20031;-80
2021/09/30 12:52:35;;;;;;;4.78;1.02;;;;;;;15.15;nan;102480.97;4905924;29;20583;-82
2021/09/30 12:55:25;;;;;;;3.08;0.82;;;;;;;15.13;nan;102477.69;4918303;29;20028;-80
2021/09/30 12:57:51;;;;;;;5.63;1.00;;;;;;;15.58;nan;102479.72;4903645;29;20029;-80
2021/09/30 13:00:18;;;;;;;1.63;1.20;;;;;;;15.91;nan;102481.75;4917135;29;20100;-81
2021/09/30 13:02:46;;;;;;;4.90;0.90;;;;;;;16.25;nan;102483.47;4926880;29;20039;-81
2021/09/30 13:05:12;;;;;;;4.68;0.88;;;;;;;16.49;nan;102486.84;4900379;29;20032;-81
2021/09/30 13:07:47;;;;;;;5.88;1.40;;;;;;;16.42;nan;102475.38;4899509;29;20028;-81
2021/09/30 13:10:16;;;;;;;4.28;0.90;;;;;;;16.07;nan;102474.75;4905445;29;20032;-81
2021/09/30 13:13:03;;;;;;;4.65;1.23;;;;;;;15.91;nan;102479.06;4918782;29;20122;-81
2021/09/30 13:15:35;;;;;;;3.88;1.23;;;;;;;15.55;nan;102481.03;4918116;29;20424;-80
2021/09/30 13:18:03;;;;;;;5.45;1.30;;;;;;;15.66;nan;102482.09;4893941;29;20043;-80
2021/09/30 13:20:30;;;;;;;1.38;0.95;;;;;;;15.39;nan;102477.19;4918865;29;20028;-80
2021/09/30 13:22:56;;;;;;;3.30;0.98;;;;;;;15.49;nan;102475.75;4904878;29;20033;-80
2021/09/30 13:25:21;;;;;;;3.63;0.95;;;;;;;15.24;nan;102474.16;4913602;29;20446;-81
2021/09/30 13:27:49;;;;;;;6.28;1.00;;;;;;;15.35;nan;102473.31;4908815;29;20024;-81
2021/09/30 13:30:20;;;;;;;4.97;1.20;;;;;;;15.46;nan;102481.66;4914539;29;20039;-81
2021/09/30 13:32:47;;;;;;;5.90;1.13;;;;;;;15.48;nan;102479.53;4908028;29;20434;-81
2021/09/30 13:35:13;;;;;;;3.25;1.02;;;;;;;15.42;nan;102476.69;4913041;29;20070;-81
2021/09/30 13:37:39;;;;;;;1.85;0.70;;;;;;;15.35;nan;102484.13;4922541;29;20273;-81
2021/09/30 13:40:07;;;;;;;4.72;1.00;;;;;;;15.76;nan;102476.06;4911143;29;20116;-81
2021/09/30 13:42:35;;;;;;;3.90;1.00;;;;;;;16.59;nan;102478.09;4919031;29;20420;-81
2021/09/30 13:45:04;;;;;;;3.60;1.13;;;;;;;16.53;nan;102477.19;4916015;29;20108;-81
2021/09/30 13:47:30;;;;;;;3.38;0.98;;;;;;;16.32;nan;102481.41;4916486;29;20526;-80
2021/09/30 13:49:57;;;;;;;1.83;0.70;;;;;;;16.39;nan;102470.47;4918538;29;20043;-81
2021/09/30 13:52:23;;;;;;;2.25;0.98;;;;;;;16.98;nan;102464.63;4910494;29;20024;-81
2021/09/30 13:54:49;;;;;;;2.55;1.10;;;;;;;17.52;nan;102469.13;4917740;29;20031;-81
2021/09/30 13:57:15;;;;;;;3.65;1.35;;;;;;;18.14;nan;102470.66;4901738;29;20383;-80
2021/09/30 13:59:40;;;;;;;3.92;1.40;;;;;;;18.31;nan;102471.38;4923133;29;20564;-82
2021/09/30 14:02:07;;;;;;;4.68;1.35;;;;;;;18.04;nan;102475.97;4918826;29;20091;-81
2021/09/30 14:04:35;;;;;;;3.30;1.20;;;;;;;18.52;nan;102472.34;4909395;29;20031;-81
2021/09/30 14:07:03;;;;;;;5.05;1.20;;;;;;;18.70;nan;102471.97;4907159;29;20031;-81
2021/09/30 14:09:28;;;;;;;2.78;1.00;;;;;;;18.99;nan;102466.16;4907889;29;20032;-81
2021/09/30 14:11:54;;;;;;;5.03;1.10;;;;;;;19.08;nan;102477.38;4904437;29;20682;-81
2021/09/30 14:14:20;;;;;;;1.63;0.80;;;;;;;18.46;nan;102470.66;4915219;29;20032;-80
2021/09/30 14:16:49;;;;;;;12.48;1.95;;;;;;;17.89;nan;102467.69;4901707;29;20118;-82
2021/09/30 14:19:20;;;;;;;7.68;1.40;;;;;;;17.23;nan;102483.91;4903803;29;20028;-81
2021/09/30 14:21:47;;;;;;;11.75;1.77;;;;;;;17.02;nan;102479.28;4911071;29;20157;-81
2021/09/30 14:24:13;;;;;;;2.95;1.38;;;;;;;17.02;nan;102480.13;4917479;29;20028;-81
2021/09/30 14:26:39;;;;;;;3.83;1.05;;;;;;;17.06;nan;102480.47;4923236;29;20019;-81
2021/09/30 14:29:05;;;;;;;6.68;0.95;;;;;;;17.48;nan;102475.31;4912696;29;20083;-81
2021/09/30 14:31:31;;;;;;;5.13;1.35;;;;;;;17.50;nan;102475.88;4902261;29;20036;-81
2021/09/30 14:33:56;;;;;;;2.45;1.45;;;;;;;17.62;nan;102479.28;4916374;29;20035;-81
2021/09/30 14:36:22;;;;;;;6.97;1.40;;;;;;;17.56;nan;102474.88;4902231;29;20036;-82
2021/09/30 14:38:48;;;;;;;4.90;1.33;;;;;;;17.49;nan;102474.25;4912802;29;20131;-81
2021/09/30 14:41:14;;;;;;;4.15;1.00;;;;;;;17.44;nan;102471.50;4921683;29;20020;-82
2021/09/30 14:43:39;;;;;;;3.63;1.00;;;;;;;17.14;nan;102472.72;4928844;29;20403;-81
2021/09/30 14:46:09;;;;;;;5.13;1.02;;;;;;;16.91;nan;102465.63;4901039;29;20036;-81